Time;durP1;ratioP1;P1;durP2;ratioP2;P2;SDS_P1;SDS_P2;PMS_P1;PMS_P2;Temp;Humidity;BMP_temperature;BMP_pressure;BME280_temperature;BME280_humidity;BME280_pressure;Samples;Min_cycle;Max_cycle;Signal;HPM_P1;HPM_P2
2023/08/02 00:00:41;;;;;;;3.07;1.47;;;16.60;99.90;;;;;;5071435;28;20221;-66
2023/08/02 00:03:07;;;;;;;3.27;1.50;;;16.70;99.90;;;;;;5069896;28;20432;-65
2023/08/02 00:05:33;;;;;;;4.03;1.23;;;16.70;99.90;;;;;;5069312;28;20487;-65
2023/08/02 00:07:58;;;;;;;3.63;1.70;;;16.90;99.90;;;;;;5069381;28;20648;-65
2023/08/02 00:10:24;;;;;;;1.77;1.30;;;16.90;99.90;;;;;;5051032;28;20205;-65
2023/08/02 00:12:51;;;;;;;1.57;1.07;;;17.00;99.90;;;;;;5069346;28;21226;-65
2023/08/02 00:15:17;;;;;;;3.17;1.60;;;17.00;99.90;;;;;;5069428;28;20183;-65
2023/08/02 00:17:43;;;;;;;3.13;1.73;;;17.00;99.90;;;;;;5069453;28;20444;-65
2023/08/02 00:20:09;;;;;;;3.13;1.40;;;17.00;99.90;;;;;;5068597;28;20894;-65
2023/08/02 00:22:34;;;;;;;10.60;1.73;;;17.10;99.90;;;;;;5069311;28;20196;-65
2023/08/02 00:25:01;;;;;;;8.63;1.57;;;17.20;99.90;;;;;;5068773;28;20428;-65
2023/08/02 00:27:26;;;;;;;4.03;1.70;;;17.10;99.90;;;;;;5068589;28;20209;-65
2023/08/02 00:29:52;;;;;;;3.00;1.20;;;17.20;99.90;;;;;;5068349;28;20441;-65
2023/08/02 00:32:18;;;;;;;2.23;1.47;;;17.20;99.90;;;;;;5068610;28;20255;-65
2023/08/02 00:34:44;;;;;;;3.17;1.93;;;17.20;99.90;;;;;;5068404;28;20183;-65
2023/08/02 00:37:10;;;;;;;4.20;1.83;;;17.20;99.90;;;;;;5068311;28;20934;-65
2023/08/02 00:39:35;;;;;;;3.20;1.60;;;17.20;99.90;;;;;;5068386;28;20187;-65
2023/08/02 00:42:01;;;;;;;2.03;1.27;;;17.30;99.90;;;;;;5068135;28;20220;-65
2023/08/02 00:44:26;;;;;;;4.00;1.40;;;17.20;99.90;;;;;;5068225;28;20192;-65
2023/08/02 00:46:52;;;;;;;3.77;1.60;;;17.30;99.90;;;;;;5050004;28;20199;-65
2023/08/02 00:49:18;;;;;;;4.00;1.87;;;17.30;99.90;;;;;;5068441;28;20186;-65
2023/08/02 00:51:44;;;;;;;3.03;1.23;;;17.20;99.90;;;;;;5068149;28;20497;-65
2023/08/02 00:54:10;;;;;;;4.70;1.77;;;17.20;99.90;;;;;;5068088;28;20215;-65
2023/08/02 00:56:36;;;;;;;3.30;1.30;;;17.10;99.90;;;;;;5068065;28;20423;-64
2023/08/02 00:59:02;;;;;;;2.33;1.53;;;17.20;99.90;;;;;;5068077;28;20175;-65
2023/08/02 01:01:27;;;;;;;1.63;1.27;;;17.10;99.90;;;;;;5068040;28;20750;-64
2023/08/02 01:03:54;;;;;;;2.90;1.33;;;17.10;99.90;;;;;;5068075;28;20226;-65
2023/08/02 01:06:28;;;;;;;2.47;1.47;;;17.10;99.90;;;;;;5068099;28;20185;-64
2023/08/02 01:09:24;;;;;;;6.00;1.93;;;17.10;99.90;;;;;;5068459;28;20490;-64
2023/08/02 01:11:59;;;;;;;2.33;1.60;;;17.10;99.90;;;;;;5067845;28;20916;-64
2023/08/02 01:14:26;;;;;;;2.80;1.80;;;17.00;99.90;;;;;;5067880;28;20917;-64
2023/08/02 01:16:51;;;;;;;2.17;1.30;;;16.80;99.90;;;;;;5067900;28;20861;-64
2023/08/02 01:19:21;;;;;;;3.43;2.10;;;16.70;99.90;;;;;;5067847;28;20429;-64
2023/08/02 01:21:47;;;;;;;5.10;1.80;;;16.60;99.90;;;;;;5067771;28;20252;-65
2023/08/02 01:24:14;;;;;;;3.57;1.80;;;16.60;99.90;;;;;;5067830;28;20426;-65
2023/08/02 01:26:43;;;;;;;2.77;1.87;;;16.60;99.90;;;;;;5067803;28;20431;-65
2023/08/02 01:29:12;;;;;;;3.77;1.73;;;16.60;99.90;;;;;;5067739;28;20519;-65
2023/08/02 01:31:41;;;;;;;7.60;2.60;;;16.70;99.90;;;;;;5069214;28;20447;-65
2023/08/02 01:34:07;;;;;;;2.70;1.20;;;16.70;99.90;;;;;;5071346;28;20464;-65
2023/08/02 01:36:33;;;;;;;3.43;1.30;;;16.60;99.90;;;;;;5071517;28;20417;-65
2023/08/02 01:38:59;;;;;;;5.83;1.47;;;16.50;99.90;;;;;;5071423;28;20426;-65
2023/08/02 01:41:24;;;;;;;2.80;2.30;;;16.60;99.90;;;;;;5071377;28;20255;-65
2023/08/02 01:43:50;;;;;;;2.90;1.40;;;16.40;99.90;;;;;;5071779;28;20666;-65
2023/08/02 01:46:15;;;;;;;4.00;1.67;;;16.50;99.90;;;;;;5071338;28;20213;-65
2023/08/02 01:48:41;;;;;;;3.53;1.70;;;16.40;99.90;;;;;;5071335;28;20190;-65
2023/08/02 01:51:06;;;;;;;2.53;1.50;;;16.40;99.90;;;;;;5071479;28;20282;-65
2023/08/02 01:53:32;;;;;;;1.40;1.30;;;16.30;99.90;;;;;;5071140;28;20213;-65
2023/08/02 01:55:58;;;;;;;6.13;2.00;;;16.30;99.90;;;;;;5071147;28;20190;-65
2023/08/02 01:58:23;;;;;;;2.93;1.83;;;16.40;99.90;;;;;;5071253;28;20182;-65
2023/08/02 02:00:49;;;;;;;4.10;1.60;;;16.40;99.90;;;;;;5070978;28;20206;-65
2023/08/02 02:03:15;;;;;;;4.37;2.00;;;16.20;99.90;;;;;;5071113;28;20196;-65
2023/08/02 02:05:40;;;;;;;5.80;2.03;;;16.00;99.90;;;;;;5070908;28;20622;-65
2023/08/02 02:08:06;;;;;;;3.17;1.70;;;16.00;99.90;;;;;;5052966;28;20227;-65
2023/08/02 02:10:31;;;;;;;2.37;1.50;;;16.00;99.90;;;;;;5071110;28;20745;-64
2023/08/02 02:12:57;;;;;;;6.00;1.87;;;15.90;99.90;;;;;;5071310;28;20712;-65
2023/08/02 02:15:22;;;;;;;3.27;1.60;;;15.90;99.90;;;;;;5071448;28;20192;-65
2023/08/02 02:17:48;;;;;;;4.93;2.00;;;15.90;99.90;;;;;;5071591;28;20270;-65
2023/08/02 02:20:14;;;;;;;6.30;2.10;;;15.80;99.90;;;;;;5071334;28;20211;-65
2023/08/02 02:22:39;;;;;;;2.27;1.77;;;15.70;99.90;;;;;;5071117;28;20202;-65
2023/08/02 02:25:05;;;;;;;4.03;1.83;;;15.70;99.90;;;;;;5070719;28;20196;-65
2023/08/02 02:27:31;;;;;;;1.97;1.57;;;15.50;99.90;;;;;;5071110;28;20324;-65
2023/08/02 02:29:56;;;;;;;8.43;2.17;;;15.40;99.90;;;;;;5070464;28;20446;-65
2023/08/02 02:32:22;;;;;;;2.37;1.77;;;15.30;99.90;;;;;;5070448;28;20601;-65
2023/08/02 02:34:47;;;;;;;6.30;1.90;;;15.30;99.90;;;;;;5070514;28;20184;-65
2023/08/02 02:37:13;;;;;;;5.70;2.13;;;15.30;99.90;;;;;;5070738;28;20247;-65
2023/08/02 02:39:39;;;;;;;7.50;1.83;;;15.30;99.90;;;;;;5070401;28;20181;-65
2023/08/02 02:42:05;;;;;;;3.40;1.50;;;15.20;99.90;;;;;;5070152;28;20281;-64
2023/08/02 02:44:43;;;;;;;5.23;2.27;;;15.30;99.90;;;;;;5070237;28;20315;-65
2023/08/02 02:47:10;;;;;;;4.10;2.13;;;15.30;99.90;;;;;;5070251;28;20423;-65
2023/08/02 02:49:35;;;;;;;3.83;1.70;;;15.30;99.90;;;;;;5070117;28;20555;-65
2023/08/02 02:52:01;;;;;;;3.20;1.83;;;15.30;99.90;;;;;;5070129;28;20545;-65
2023/08/02 02:54:27;;;;;;;2.50;1.50;;;15.30;99.90;;;;;;5069977;28;20224;-65
2023/08/02 02:56:52;;;;;;;4.30;1.50;;;15.30;99.90;;;;;;5069987;28;20608;-65
2023/08/02 02:59:18;;;;;;;3.57;1.80;;;15.30;99.90;;;;;;5070006;28;20187;-65
2023/08/02 03:01:43;;;;;;;2.63;1.53;;;15.30;99.90;;;;;;5069963;28;20210;-65
2023/08/02 03:04:09;;;;;;;4.10;1.57;;;15.30;99.90;;;;;;5069897;28;20764;-65
2023/08/02 03:06:34;;;;;;;4.60;1.83;;;15.30;99.90;;;;;;5070046;28;20560;-65
2023/08/02 03:09:00;;;;;;;5.07;2.30;;;15.30;99.90;;;;;;5069857;28;20199;-65
2023/08/02 03:11:25;;;;;;;4.27;1.97;;;15.30;99.90;;;;;;5069629;28;20206;-65
2023/08/02 03:13:51;;;;;;;4.03;2.30;;;15.30;99.90;;;;;;5051467;28;20835;-65
2023/08/02 03:16:17;;;;;;;2.17;1.70;;;15.40;99.90;;;;;;5069557;28;20183;-65
2023/08/02 03:18:42;;;;;;;5.03;1.80;;;15.40;99.90;;;;;;5069790;28;20273;-64
2023/08/02 03:21:08;;;;;;;7.13;1.93;;;15.40;99.90;;;;;;5069471;28;20659;-65
2023/08/02 03:23:36;;;;;;;3.63;1.70;;;15.50;99.90;;;;;;5051427;28;20192;-65
2023/08/02 03:26:02;;;;;;;5.20;1.90;;;15.50;99.90;;;;;;5069404;28;20660;-65
2023/08/02 03:28:28;;;;;;;6.77;2.43;;;15.70;99.90;;;;;;5069942;28;20435;-65
2023/08/02 03:30:54;;;;;;;5.23;1.87;;;15.70;99.90;;;;;;5069211;28;20225;-65
2023/08/02 03:33:20;;;;;;;3.37;2.23;;;15.80;99.90;;;;;;5069388;28;20644;-65
2023/08/02 03:35:45;;;;;;;3.67;1.67;;;15.80;99.90;;;;;;5069394;28;20756;-65
2023/08/02 03:38:11;;;;;;;2.70;1.80;;;15.90;99.90;;;;;;5069813;28;20192;-65
2023/08/02 03:40:36;;;;;;;4.00;2.37;;;16.00;99.90;;;;;;5068899;28;20664;-65
2023/08/02 03:43:02;;;;;;;4.67;2.00;;;16.00;99.90;;;;;;5068872;28;20182;-65
2023/08/02 03:45:28;;;;;;;4.07;2.20;;;16.10;99.90;;;;;;5069293;28;20674;-65
2023/08/02 03:47:53;;;;;;;6.70;1.97;;;16.20;99.90;;;;;;5069383;28;20231;-64
2023/08/02 03:50:19;;;;;;;3.77;2.03;;;16.20;99.90;;;;;;5069911;28;20208;-65
2023/08/02 03:52:45;;;;;;;4.60;2.47;;;16.30;99.90;;;;;;5051616;28;20348;-65
2023/08/02 03:55:10;;;;;;;4.90;2.33;;;16.30;99.90;;;;;;5068628;28;20515;-65
2023/08/02 03:57:36;;;;;;;5.73;2.03;;;16.30;99.90;;;;;;5069231;28;20223;-65
2023/08/02 04:00:01;;;;;;;7.53;1.93;;;16.40;99.90;;;;;;5069091;28;20275;-65
2023/08/02 04:02:27;;;;;;;5.00;1.83;;;16.50;99.90;;;;;;5069565;28;20184;-65
2023/08/02 04:04:53;;;;;;;6.20;2.20;;;16.50;99.90;;;;;;5069148;28;20319;-65
2023/08/02 04:07:18;;;;;;;2.87;2.30;;;16.50;99.90;;;;;;5069703;28;20185;-65
2023/08/02 04:09:44;;;;;;;3.90;1.53;;;16.50;99.90;;;;;;5069335;28;20177;-65
2023/08/02 04:12:09;;;;;;;6.13;1.90;;;16.60;99.90;;;;;;5069119;28;20691;-65
2023/08/02 04:14:35;;;;;;;4.43;2.20;;;16.50;99.90;;;;;;5069299;28;20213;-65
2023/08/02 04:17:01;;;;;;;4.30;2.13;;;16.40;99.90;;;;;;5068776;28;20240;-64
2023/08/02 04:19:27;;;;;;;1.93;1.50;;;16.30;99.90;;;;;;5068725;28;20188;-65
2023/08/02 04:21:53;;;;;;;2.00;1.80;;;16.30;99.90;;;;;;5068894;28;20231;-64
2023/08/02 04:24:18;;;;;;;4.37;1.93;;;16.30;99.90;;;;;;5068900;28;20920;-64
2023/08/02 04:26:44;;;;;;;5.80;2.30;;;16.30;99.90;;;;;;5068651;28;20183;-65
2023/08/02 04:29:10;;;;;;;4.60;2.27;;;16.20;99.90;;;;;;5068308;28;20639;-65
2023/08/02 04:31:35;;;;;;;3.30;2.37;;;16.10;99.90;;;;;;5068481;28;20303;-64
2023/08/02 04:34:01;;;;;;;6.57;2.07;;;16.10;99.90;;;;;;5068566;28;20228;-65
2023/08/02 04:36:26;;;;;;;2.97;2.17;;;15.90;99.90;;;;;;5067980;28;20185;-65
2023/08/02 04:38:53;;;;;;;6.20;2.47;;;16.00;99.90;;;;;;5068463;28;20656;-64
2023/08/02 04:41:19;;;;;;;4.63;3.00;;;16.10;99.90;;;;;;5067414;28;20220;-64
2023/08/02 04:43:46;;;;;;;3.00;2.50;;;15.90;99.90;;;;;;5066514;28;20459;-65
2023/08/02 04:46:12;;;;;;;2.83;2.40;;;15.80;99.90;;;;;;5066985;28;20181;-65
2023/08/02 04:48:38;;;;;;;9.10;2.97;;;15.70;99.90;;;;;;5066688;28;20792;-64
2023/08/02 04:51:10;;;;;;;5.67;3.00;;;15.60;99.90;;;;;;5066636;28;20254;-64
2023/08/02 04:53:36;;;;;;;5.53;3.37;;;15.50;99.90;;;;;;5066415;28;20223;-64
2023/08/02 04:56:02;;;;;;;3.77;3.23;;;15.70;99.90;;;;;;5048391;28;20418;-64
2023/08/02 04:58:27;;;;;;;9.37;3.77;;;15.60;99.90;;;;;;5066637;28;20254;-65
2023/08/02 05:00:53;;;;;;;6.00;3.53;;;15.60;99.90;;;;;;5066681;28;20204;-64
2023/08/02 05:03:18;;;;;;;5.50;3.23;;;15.70;99.90;;;;;;5067019;28;20197;-64
2023/08/02 05:05:44;;;;;;;5.63;3.20;;;15.70;99.90;;;;;;5068442;28;20263;-66
2023/08/02 05:08:09;;;;;;;8.63;3.83;;;15.70;99.90;;;;;;5070685;28;20343;-65
2023/08/02 05:10:38;;;;;;;6.47;4.00;;;15.50;99.90;;;;;;5070785;28;20212;-65
2023/08/02 05:13:05;;;;;;;6.97;4.00;;;15.50;99.90;;;;;;5052307;28;20221;-65
2023/08/02 05:15:40;;;;;;;7.77;3.90;;;15.50;99.90;;;;;;5052687;28;20419;-65
2023/08/02 05:18:06;;;;;;;8.77;4.77;;;15.50;99.90;;;;;;5070512;28;20409;-64
2023/08/02 05:20:32;;;;;;;7.40;4.90;;;15.40;99.90;;;;;;5070299;28;20951;-65
2023/08/02 05:22:59;;;;;;;8.00;4.90;;;15.30;99.90;;;;;;5070046;28;20241;-65
2023/08/02 05:25:32;;;;;;;10.30;5.23;;;15.30;99.90;;;;;;5070356;28;20989;-64
2023/08/02 05:27:58;;;;;;;7.57;5.23;;;15.30;99.90;;;;;;5070236;28;20453;-64
2023/08/02 05:30:23;;;;;;;9.57;6.07;;;15.30;99.90;;;;;;5070207;28;20465;-65
2023/08/02 05:32:49;;;;;;;12.03;6.57;;;15.30;99.90;;;;;;5070139;28;20592;-65
2023/08/02 05:35:15;;;;;;;7.13;5.57;;;15.20;99.90;;;;;;5070107;28;20262;-65
2023/08/02 05:37:41;;;;;;;10.50;6.97;;;15.20;99.90;;;;;;5069980;28;20193;-65
2023/08/02 05:40:07;;;;;;;10.70;6.70;;;15.20;99.90;;;;;;5069970;28;20675;-65
2023/08/02 05:42:32;;;;;;;10.20;6.50;;;15.20;99.90;;;;;;5069947;28;20192;-65
2023/08/02 05:44:58;;;;;;;9.60;6.80;;;15.20;99.90;;;;;;5069952;28;20410;-65
2023/08/02 05:47:23;;;;;;;8.53;6.60;;;15.20;99.90;;;;;;5069855;28;20189;-65
2023/08/02 05:49:49;;;;;;;10.50;6.23;;;15.30;99.90;;;;;;5069903;28;20263;-65
2023/08/02 05:52:15;;;;;;;11.93;7.10;;;15.30;99.90;;;;;;5069714;28;20203;-65
2023/08/02 05:54:40;;;;;;;10.27;6.27;;;15.30;99.90;;;;;;5069793;28;20180;-65
2023/08/02 05:57:07;;;;;;;8.83;6.97;;;15.30;99.90;;;;;;5070187;28;20195;-65
2023/08/02 05:59:33;;;;;;;10.03;6.80;;;15.30;99.90;;;;;;5070161;28;20272;-64
2023/08/02 06:01:59;;;;;;;9.80;7.17;;;15.30;99.90;;;;;;5070177;28;20442;-65
2023/08/02 06:04:25;;;;;;;9.80;7.17;;;15.30;99.90;;;;;;5070382;28;20478;-64
2023/08/02 06:06:51;;;;;;;10.73;7.20;;;15.30;99.90;;;;;;5070219;28;20539;-65
2023/08/02 06:09:16;;;;;;;9.63;6.40;;;15.30;99.90;;;;;;5070174;28;20689;-66
2023/08/02 06:11:42;;;;;;;10.43;6.73;;;15.20;99.90;;;;;;5069739;28;20205;-65
2023/08/02 06:14:08;;;;;;;9.50;6.37;;;15.20;99.90;;;;;;5069858;28;20180;-63
2023/08/02 06:16:33;;;;;;;9.03;6.10;;;15.20;99.90;;;;;;5069536;28;20212;-65
2023/08/02 06:18:59;;;;;;;6.83;5.60;;;15.20;99.90;;;;;;5069631;28;20184;-65
2023/08/02 06:21:24;;;;;;;8.70;5.87;;;15.30;99.90;;;;;;5069530;28;20587;-64
2023/08/02 06:23:50;;;;;;;10.37;6.27;;;15.30;99.90;;;;;;5069201;28;20220;-64
2023/08/02 06:26:16;;;;;;;7.63;6.20;;;15.30;99.90;;;;;;5069105;28;20666;-65
2023/08/02 06:28:42;;;;;;;8.87;5.73;;;15.40;99.90;;;;;;5069135;28;20183;-64
2023/08/02 06:31:07;;;;;;;7.43;5.50;;;15.40;99.90;;;;;;5068780;28;20454;-64
2023/08/02 06:33:33;;;;;;;7.93;5.67;;;15.50;99.90;;;;;;5068887;28;20561;-64
2023/08/02 06:35:59;;;;;;;7.60;5.00;;;15.40;99.90;;;;;;5068902;28;20236;-64
2023/08/02 06:38:24;;;;;;;10.90;6.70;;;15.50;99.90;;;;;;5068895;28;20193;-63
2023/08/02 06:40:50;;;;;;;8.10;5.40;;;15.60;99.90;;;;;;5068556;28;20207;-64
2023/08/02 06:43:15;;;;;;;7.97;6.07;;;15.60;99.90;;;;;;5068681;28;20238;-63
2023/08/02 06:45:47;;;;;;;8.00;5.97;;;15.80;99.90;;;;;;5068688;28;20736;-64
2023/08/02 06:48:15;;;;;;;9.50;5.90;;;15.80;99.90;;;;;;5068650;28;20216;-64
2023/08/02 06:50:43;;;;;;;6.50;5.33;;;15.80;99.90;;;;;;5068633;28;20496;-64
2023/08/02 06:53:09;;;;;;;7.50;5.40;;;15.90;99.90;;;;;;5068528;28;20428;-65
2023/08/02 06:55:34;;;;;;;8.03;6.40;;;15.90;99.90;;;;;;5068536;28;20426;-65
2023/08/02 06:58:00;;;;;;;7.40;5.50;;;15.90;99.90;;;;;;5068750;28;20180;-65
2023/08/02 07:00:25;;;;;;;6.83;5.47;;;16.00;99.90;;;;;;5068452;28;20673;-66
2023/08/02 07:02:51;;;;;;;8.43;5.70;;;16.00;99.90;;;;;;5068666;28;20205;-65
2023/08/02 07:05:16;;;;;;;9.93;5.37;;;16.00;99.90;;;;;;5068296;28;20219;-64
2023/08/02 07:07:42;;;;;;;7.83;5.83;;;16.00;99.90;;;;;;5068231;28;20229;-64
2023/08/02 07:10:08;;;;;;;8.43;6.20;;;16.00;99.90;;;;;;5068215;28;20181;-64
2023/08/02 07:12:33;;;;;;;5.73;5.13;;;16.00;99.90;;;;;;5068453;28;20165;-64
2023/08/02 07:14:59;;;;;;;7.07;5.30;;;15.90;99.90;;;;;;5068360;28;21002;-64
2023/08/02 07:17:25;;;;;;;6.87;5.20;;;16.00;99.90;;;;;;5068193;28;20176;-64
2023/08/02 07:19:50;;;;;;;5.37;4.57;;;16.10;99.90;;;;;;5068138;28;20185;-64
2023/08/02 07:22:17;;;;;;;7.60;5.30;;;16.10;99.90;;;;;;5067944;28;20712;-65
2023/08/02 07:24:45;;;;;;;9.47;5.43;;;16.10;99.90;;;;;;5067827;28;20221;-65
2023/08/02 07:27:11;;;;;;;11.33;5.73;;;16.20;99.90;;;;;;5050323;28;20418;-65
2023/08/02 07:29:37;;;;;;;10.47;5.70;;;16.30;99.90;;;;;;5068033;28;20955;-65
2023/08/02 07:32:03;;;;;;;7.30;4.77;;;16.40;99.90;;;;;;5068310;28;20213;-65
2023/08/02 07:34:28;;;;;;;7.37;4.87;;;16.40;99.90;;;;;;5050711;28;20719;-65
2023/08/02 07:36:54;;;;;;;6.00;4.87;;;16.30;99.90;;;;;;5068577;28;20292;-66
2023/08/02 07:39:19;;;;;;;6.17;5.13;;;16.30;99.90;;;;;;5068614;28;20190;-65
2023/08/02 07:41:45;;;;;;;8.33;5.57;;;16.30;99.90;;;;;;5068537;28;20311;-65
2023/08/02 07:44:11;;;;;;;9.03;5.40;;;16.20;99.90;;;;;;5068322;28;20226;-64
2023/08/02 07:46:36;;;;;;;10.20;5.07;;;16.10;99.90;;;;;;5068433;28;20230;-65
2023/08/02 07:49:02;;;;;;;11.53;4.93;;;16.00;99.90;;;;;;5068253;28;20180;-65
2023/08/02 07:51:27;;;;;;;7.03;5.20;;;16.00;99.90;;;;;;5068101;28;20767;-65
2023/08/02 07:53:53;;;;;;;10.17;6.00;;;16.00;99.90;;;;;;5068227;28;20434;-65
2023/08/02 07:56:19;;;;;;;6.10;4.70;;;16.00;99.90;;;;;;5068191;28;20246;-65
2023/08/02 07:58:45;;;;;;;5.33;4.73;;;15.90;99.90;;;;;;5068026;28;20196;-65
2023/08/02 08:01:10;;;;;;;8.07;5.10;;;15.90;99.90;;;;;;5068351;28;20450;-66
2023/08/02 08:03:37;;;;;;;6.17;4.97;;;15.90;99.90;;;;;;5033508;28;20212;-66
2023/08/02 08:06:11;;;;;;;6.60;4.50;;;15.90;99.90;;;;;;5068080;28;20480;-65
2023/08/02 08:08:36;;;;;;;7.33;4.17;;;15.90;99.90;;;;;;5049462;28;20430;-65
2023/08/02 08:11:02;;;;;;;6.20;4.57;;;16.00;99.90;;;;;;5068095;28;20438;-65
2023/08/02 08:13:28;;;;;;;6.00;4.20;;;16.00;99.90;;;;;;5068399;28;20211;-64
2023/08/02 08:15:53;;;;;;;4.70;3.70;;;16.10;99.90;;;;;;5067922;28;20197;-65
2023/08/02 08:18:19;;;;;;;5.83;4.40;;;16.10;99.90;;;;;;5067766;28;20188;-65
2023/08/02 08:20:44;;;;;;;6.43;4.40;;;16.10;99.90;;;;;;5068230;28;20640;-65
2023/08/02 08:23:10;;;;;;;7.23;4.73;;;16.10;99.90;;;;;;5067626;28;20213;-65
2023/08/02 08:25:36;;;;;;;4.53;3.97;;;16.10;99.90;;;;;;5067496;28;20180;-65
2023/08/02 08:28:01;;;;;;;7.53;4.30;;;16.10;99.90;;;;;;5067514;28;20192;-65
2023/08/02 08:30:27;;;;;;;4.80;3.70;;;16.10;99.90;;;;;;5067413;28;20252;-65
2023/08/02 08:32:53;;;;;;;4.17;3.53;;;16.10;99.90;;;;;;5067401;28;20245;-65
2023/08/02 08:35:18;;;;;;;3.13;2.83;;;16.10;99.90;;;;;;5067653;28;20213;-65
2023/08/02 08:37:45;;;;;;;4.37;2.60;;;16.10;99.90;;;;;;5067118;28;21024;-64
2023/08/02 08:40:17;;;;;;;3.60;3.30;;;16.10;99.90;;;;;;5066809;28;20197;-65
2023/08/02 08:42:53;;;;;;;4.67;3.13;;;16.10;99.90;;;;;;5067584;28;20418;-64
2023/08/02 08:45:21;;;;;;;4.40;2.90;;;16.10;99.90;;;;;;5067474;28;20450;-64
2023/08/02 08:47:47;;;;;;;3.40;3.10;;;16.10;99.90;;;;;;5067551;28;20517;-64
2023/08/02 08:50:14;;;;;;;3.20;2.90;;;16.10;99.90;;;;;;5067129;28;20784;-66
2023/08/02 08:52:44;;;;;;;4.10;3.60;;;16.10;99.90;;;;;;5066858;28;20474;-64
2023/08/02 08:55:12;;;;;;;3.50;3.00;;;16.10;99.90;;;;;;5067047;28;20412;-65
2023/08/02 08:57:38;;;;;;;3.33;3.03;;;16.10;99.90;;;;;;5067055;28;20416;-65
2023/08/02 09:00:05;;;;;;;3.00;2.70;;;16.10;99.90;;;;;;5066764;28;20425;-65
2023/08/02 09:02:32;;;;;;;4.63;3.03;;;16.10;99.90;;;;;;5066800;28;20922;-64
2023/08/02 09:05:00;;;;;;;4.07;2.90;;;16.10;99.90;;;;;;5066510;28;20519;-65
2023/08/02 09:07:25;;;;;;;2.97;2.70;;;16.20;99.90;;;;;;5067056;28;20796;-65
2023/08/02 09:09:51;;;;;;;3.73;3.03;;;16.20;99.90;;;;;;5067046;28;20426;-65
2023/08/02 09:12:17;;;;;;;4.53;3.47;;;16.30;99.90;;;;;;5067047;28;20215;-64
2023/08/02 09:15:03;;;;;;;3.50;3.20;;;16.40;99.90;;;;;;5066960;28;20193;-65
2023/08/02 09:17:46;;;;;;;3.97;3.33;;;16.50;99.90;;;;;;5049036;28;20573;-65
2023/08/02 09:20:12;;;;;;;5.03;3.20;;;16.70;99.90;;;;;;5066935;28;20415;-65
2023/08/02 09:22:37;;;;;;;4.53;4.03;;;16.70;99.90;;;;;;5066639;28;20420;-65
2023/08/02 09:25:07;;;;;;;4.37;3.63;;;16.80;99.90;;;;;;5066908;28;20415;-65
2023/08/02 09:27:34;;;;;;;5.40;3.87;;;16.90;99.90;;;;;;5066472;28;20188;-65
2023/08/02 09:30:00;;;;;;;5.77;3.63;;;17.00;99.90;;;;;;5066232;28;20528;-65
2023/08/02 09:32:26;;;;;;;4.60;4.00;;;17.20;99.90;;;;;;5066404;28;20871;-65
2023/08/02 09:34:57;;;;;;;5.23;4.00;;;17.20;99.90;;;;;;5066256;28;20193;-65
2023/08/02 09:37:33;;;;;;;5.27;4.70;;;17.30;99.90;;;;;;5066275;28;20425;-65
2023/08/02 09:39:58;;;;;;;5.10;4.60;;;17.40;99.90;;;;;;5066185;28;20428;-65
2023/08/02 09:42:26;;;;;;;7.73;4.17;;;17.50;99.90;;;;;;5066150;28;20498;-65
2023/08/02 09:44:57;;;;;;;11.43;4.83;;;17.50;99.90;;;;;;5066106;28;20278;-65
2023/08/02 09:47:26;;;;;;;5.97;4.33;;;17.50;99.90;;;;;;5066092;28;20422;-65
2023/08/02 09:50:09;;;;;;;4.47;4.07;;;17.60;99.90;;;;;;5066193;28;20482;-64
2023/08/02 09:52:36;;;;;;;6.10;4.93;;;17.60;99.90;;;;;;5067548;28;20412;-64
2023/08/02 09:55:02;;;;;;;5.83;4.80;;;17.60;99.90;;;;;;5069786;28;20439;-65
2023/08/02 09:57:29;;;;;;;7.23;4.90;;;17.60;99.90;;;;;;5069641;28;20439;-64
2023/08/02 10:00:02;;;;;;;5.60;4.60;;;17.70;99.90;;;;;;5069713;28;20573;-64
2023/08/02 10:02:30;;;;;;;5.30;4.80;;;17.70;99.90;;;;;;5070137;28;20421;-64
2023/08/02 10:04:57;;;;;;;8.53;4.83;;;17.80;99.90;;;;;;5069404;28;20526;-65
2023/08/02 10:07:39;;;;;;;8.87;5.30;;;17.80;99.90;;;;;;5069827;28;20493;-65
2023/08/02 10:10:07;;;;;;;5.63;4.90;;;17.90;99.90;;;;;;5069333;28;20779;-64
2023/08/02 10:12:38;;;;;;;9.37;5.87;;;17.90;99.90;;;;;;5069305;28;20432;-64
2023/08/02 10:15:04;;;;;;;6.27;4.53;;;17.90;99.90;;;;;;5051566;28;20419;-65
2023/08/02 10:17:31;;;;;;;6.53;5.20;;;18.00;99.90;;;;;;5069258;28;20436;-65
2023/08/02 10:20:02;;;;;;;6.43;4.80;;;18.00;99.90;;;;;;5069106;28;20428;-65
2023/08/02 10:22:29;;;;;;;6.57;4.83;;;18.10;99.90;;;;;;5069025;28;20474;-65
2023/08/02 10:24:56;;;;;;;5.90;5.30;;;18.20;99.90;;;;;;5069123;28;20533;-65
2023/08/02 10:27:23;;;;;;;5.20;4.73;;;18.30;99.90;;;;;;5069481;28;20463;-64
2023/08/02 10:29:50;;;;;;;7.40;4.90;;;18.40;99.90;;;;;;5069066;28;20451;-64
2023/08/02 10:32:18;;;;;;;7.00;5.40;;;18.40;99.90;;;;;;5068979;28;21019;-65
2023/08/02 10:34:53;;;;;;;8.50;5.27;;;18.60;99.90;;;;;;5069054;28;20486;-65
2023/08/02 10:37:20;;;;;;;6.33;4.90;;;18.60;99.90;;;;;;5069061;28;20751;-65
2023/08/02 10:39:45;;;;;;;6.53;5.17;;;18.70;99.90;;;;;;5069040;28;20897;-65
2023/08/02 10:42:12;;;;;;;5.90;5.30;;;18.70;99.90;;;;;;5069029;28;20441;-65
2023/08/02 10:44:58;;;;;;;7.37;5.73;;;18.80;99.90;;;;;;5069114;28;20220;-65
2023/08/02 10:47:33;;;;;;;5.20;4.70;;;19.10;99.90;;;;;;5068518;28;20422;-65
2023/08/02 10:50:00;;;;;;;5.70;4.40;;;19.30;99.90;;;;;;5068879;28;20798;-66
2023/08/02 10:52:33;;;;;;;5.50;4.50;;;19.50;99.90;;;;;;5068576;28;20417;-65
2023/08/02 10:55:13;;;;;;;5.97;4.60;;;19.80;99.90;;;;;;5068632;28;20805;-65
2023/08/02 10:58:05;;;;;;;6.73;5.13;;;20.10;99.90;;;;;;5068783;28;20468;-66
2023/08/02 11:00:32;;;;;;;4.90;4.40;;;20.40;99.90;;;;;;5068793;28;20496;-65
2023/08/02 11:02:58;;;;;;;7.30;4.77;;;20.80;99.90;;;;;;5068311;28;20472;-65
2023/08/02 11:05:40;;;;;;;5.50;4.37;;;20.90;99.90;;;;;;5068427;28;20729;-66
2023/08/02 11:08:09;;;;;;;6.20;4.73;;;21.00;99.90;;;;;;5068317;28;20429;-65
2023/08/02 11:10:51;;;;;;;6.43;4.40;;;21.00;99.90;;;;;;5068055;28;20978;-66
2023/08/02 11:13:17;;;;;;;5.60;4.53;;;21.00;99.90;;;;;;5068341;28;20424;-66
2023/08/02 11:15:43;;;;;;;6.67;4.50;;;21.10;99.90;;;;;;5068310;28;20419;-65
2023/08/02 11:18:09;;;;;;;6.30;4.93;;;21.10;99.90;;;;;;5068184;28;20958;-65
2023/08/02 11:20:37;;;;;;;6.17;4.73;;;21.10;99.90;;;;;;5068047;28;20720;-66
2023/08/02 11:23:23;;;;;;;5.13;4.60;;;21.20;99.90;;;;;;5067929;28;20207;-66
2023/08/02 11:25:50;;;;;;;4.57;4.17;;;21.40;99.90;;;;;;5068016;28;20904;-65
2023/08/02 11:28:15;;;;;;;4.40;3.90;;;21.80;99.90;;;;;;5068020;28;20449;-66
2023/08/02 11:30:41;;;;;;;4.00;3.70;;;22.00;99.90;;;;;;5067713;28;20492;-66
2023/08/02 11:33:07;;;;;;;5.40;3.50;;;22.40;99.90;;;;;;5067906;28;20761;-65
2023/08/02 11:35:33;;;;;;;6.73;3.57;;;22.80;99.90;;;;;;5067786;28;20428;-64
2023/08/02 11:37:59;;;;;;;7.90;3.23;;;23.00;99.90;;;;;;5067777;28;20242;-64
2023/08/02 11:40:36;;;;;;;5.70;3.23;;;23.30;99.90;;;;;;5067583;28;20218;-65
2023/08/02 11:43:01;;;;;;;7.33;2.87;;;23.50;99.90;;;;;;5067666;28;21007;-66
2023/08/02 11:45:34;;;;;;;5.00;3.20;;;23.60;99.90;;;;;;5067684;28;20422;-65
2023/08/02 11:48:00;;;;;;;4.10;3.00;;;23.40;99.90;;;;;;5049822;28;20208;-65
2023/08/02 11:50:28;;;;;;;3.50;2.70;;;23.30;99.90;;;;;;5067465;28;20426;-66
2023/08/02 11:53:08;;;;;;;4.00;3.07;;;23.30;99.90;;;;;;5067498;28;20424;-65
2023/08/02 11:55:35;;;;;;;4.87;2.93;;;23.30;99.90;;;;;;5049546;28;20429;-65
2023/08/02 11:58:05;;;;;;;3.10;2.80;;;23.40;99.90;;;;;;5067208;28;20433;-65
2023/08/02 12:00:33;;;;;;;5.83;3.23;;;23.40;99.90;;;;;;5067175;28;21220;-64
2023/08/02 12:03:15;;;;;;;2.97;2.67;;;23.60;99.90;;;;;;5067189;28;20481;-65
2023/08/02 12:05:43;;;;;;;2.70;2.50;;;23.80;99.90;;;;;;5067304;28;20416;-65
2023/08/02 12:08:10;;;;;;;3.03;2.70;;;23.80;99.90;;;;;;5067256;28;20418;-65
2023/08/02 12:10:38;;;;;;;3.13;2.30;;;23.80;99.90;;;;;;5067200;28;20438;-65
2023/08/02 12:13:14;;;;;;;2.93;2.60;;;23.90;99.90;;;;;;5049093;28;20432;-64
2023/08/02 12:15:40;;;;;;;2.53;2.07;;;24.10;99.90;;;;;;5066865;28;20427;-65
2023/08/02 12:18:07;;;;;;;3.23;2.50;;;24.30;99.90;;;;;;5067283;28;20512;-65
2023/08/02 12:20:34;;;;;;;2.27;1.97;;;24.30;99.90;;;;;;5067477;28;20469;-65
2023/08/02 12:23:00;;;;;;;4.50;2.23;;;24.50;99.90;;;;;;5049091;28;20890;-65
2023/08/02 12:25:26;;;;;;;2.60;2.40;;;24.50;99.90;;;;;;5067532;28;20523;-65
2023/08/02 12:28:06;;;;;;;3.17;2.40;;;24.70;99.90;;;;;;5049233;28;20425;-65
2023/08/02 12:30:32;;;;;;;6.60;3.47;;;24.90;99.90;;;;;;5067526;28;20222;-64
2023/08/02 12:32:58;;;;;;;3.13;2.50;;;25.10;99.90;;;;;;5067604;28;20424;-65
2023/08/02 12:35:25;;;;;;;4.60;2.93;;;25.30;99.90;;;;;;5067553;28;21028;-65
2023/08/02 12:37:51;;;;;;;2.60;2.40;;;25.30;99.90;;;;;;5067724;28;20448;-65
2023/08/02 12:40:17;;;;;;;2.50;2.03;;;25.30;99.90;;;;;;5067483;28;20317;-65
2023/08/02 12:42:43;;;;;;;3.20;2.20;;;25.30;99.90;;;;;;5067454;28;20523;-65
2023/08/02 12:45:09;;;;;;;2.73;2.23;;;25.60;99.90;;;;;;5067437;28;20313;-65